Time;durP1;ratioP1;P1;durP2;ratioP2;P2;SDS_P1;SDS_P2;PMS_P1;PMS_P2;Temp;Humidity;BMP_temperature;BMP_pressure;BME280_temperature;BME280_humidity;BME280_pressure;Samples;Min_cycle;Max_cycle;Signal;HPM_P1;HPM_P2
2023/05/11 00:06:00;;;;;;;16.48;7.63;;;12.30;99.90;;;;;;20659417;28;20046;-44
2023/05/11 00:16:02;;;;;;;18.20;6.07;;;12.30;99.90;;;;;;20655188;28;20038;-41
2023/05/11 00:26:03;;;;;;;14.70;6.65;;;12.30;99.90;;;;;;20651506;28;20045;-41
2023/05/11 00:36:05;;;;;;;18.00;7.78;;;12.20;99.90;;;;;;20649979;28;20038;-43
2023/05/11 00:46:06;;;;;;;18.70;7.88;;;12.10;99.90;;;;;;20646841;28;20049;-41
2023/05/11 00:56:07;;;;;;;19.10;8.70;;;12.20;99.90;;;;;;20643385;28;20038;-42
2023/05/11 01:06:17;;;;;;;12.95;6.55;;;12.10;99.90;;;;;;20648966;28;20049;-41
2023/05/11 01:16:23;;;;;;;15.63;7.07;;;12.10;99.90;;;;;;20638047;28;20245;-41
2023/05/11 01:27:01;;;;;;;18.35;7.32;;;12.10;99.90;;;;;;20636123;28;20426;-41
2023/05/11 01:37:11;;;;;;;17.45;7.22;;;12.00;99.90;;;;;;20635973;28;20049;-42
2023/05/11 01:47:14;;;;;;;17.10;8.13;;;12.00;99.90;;;;;;20634708;28;21504;-43
2023/05/11 01:57:17;;;;;;;16.40;8.02;;;12.00;99.90;;;;;;20647104;28;20054;-43
2023/05/11 02:07:19;;;;;;;16.27;7.18;;;12.00;99.90;;;;;;20627585;28;20483;-43
2023/05/11 02:17:21;;;;;;;16.75;6.68;;;12.00;99.90;;;;;;20623254;28;20046;-43
2023/05/11 02:27:23;;;;;;;14.32;6.55;;;11.90;99.90;;;;;;20652632;28;20034;-42
2023/05/11 02:37:26;;;;;;;15.85;7.03;;;11.90;99.90;;;;;;20644512;28;20416;-43
2023/05/11 02:47:32;;;;;;;13.65;5.65;;;12.00;99.90;;;;;;20658318;28;20049;-43
2023/05/11 02:57:33;;;;;;;14.18;6.43;;;11.90;99.90;;;;;;20651932;28;20053;-43
2023/05/11 03:07:35;;;;;;;12.82;5.82;;;11.90;99.90;;;;;;20642804;28;20038;-43
2023/05/11 03:17:36;;;;;;;14.65;6.60;;;11.90;99.90;;;;;;20635935;28;20033;-43
2023/05/11 03:27:41;;;;;;;16.02;7.32;;;11.90;99.90;;;;;;20643978;28;20041;-42
2023/05/11 03:37:43;;;;;;;15.30;6.47;;;11.90;99.90;;;;;;20650343;28;20500;-43
2023/05/11 03:47:46;;;;;;;12.57;6.25;;;11.80;99.90;;;;;;20659735;28;20049;-43
2023/05/11 03:57:47;;;;;;;14.73;5.55;;;11.80;99.90;;;;;;20657995;28;20162;-43
2023/05/11 04:07:49;;;;;;;16.83;7.28;;;11.80;99.90;;;;;;20649352;28;20038;-43
2023/05/11 04:17:51;;;;;;;16.13;7.65;;;11.80;99.90;;;;;;20644743;28;20048;-43
2023/05/11 04:27:52;;;;;;;16.83;8.52;;;11.80;99.90;;;;;;20636416;28;20386;-42
2023/05/11 04:37:53;;;;;;;22.23;8.98;;;11.80;99.90;;;;;;20631878;28;20042;-43
2023/05/11 04:47:54;;;;;;;22.83;9.55;;;11.90;99.90;;;;;;20628958;28;20337;-43
2023/05/11 04:57:56;;;;;;;20.65;8.60;;;11.90;99.90;;;;;;20629191;28;20046;-42
2023/05/11 05:07:58;;;;;;;18.83;7.95;;;11.90;99.90;;;;;;20632313;28;20042;-43
2023/05/11 05:17:59;;;;;;;20.80;8.95;;;11.90;99.90;;;;;;20630998;28;20540;-43
2023/05/11 05:28:00;;;;;;;25.52;10.90;;;12.00;99.90;;;;;;20635387;28;20548;-43
2023/05/11 05:38:01;;;;;;;30.45;11.45;;;12.00;99.90;;;;;;20644603;28;20053;-42
2023/05/11 05:48:04;;;;;;;24.88;10.80;;;12.10;99.90;;;;;;20629134;28;20045;-43
2023/05/11 05:58:05;;;;;;;32.13;13.40;;;12.20;99.90;;;;;;20639138;28;20053;-43
2023/05/11 06:08:06;;;;;;;27.38;11.55;;;12.30;99.90;;;;;;20642056;28;20041;-42
2023/05/11 06:18:07;;;;;;;30.10;12.52;;;12.30;99.90;;;;;;20658603;28;20050;-43
2023/05/11 06:28:08;;;;;;;34.20;14.07;;;12.50;99.90;;;;;;20648567;28;20042;-43
2023/05/11 06:38:09;;;;;;;30.83;10.52;;;12.50;99.90;;;;;;20640619;28;21015;-43
2023/05/11 06:48:11;;;;;;;36.40;13.65;;;12.50;99.90;;;;;;20650157;28;20046;-43
2023/05/11 06:58:12;;;;;;;34.53;14.25;;;12.60;99.90;;;;;;20641499;28;20045;-43
2023/05/11 07:08:13;;;;;;;28.73;13.05;;;12.70;99.90;;;;;;20634884;28;20042;-43
2023/05/11 07:18:14;;;;;;;30.58;12.15;;;12.90;99.90;;;;;;20621897;28;20034;-43
2023/05/11 07:28:15;;;;;;;33.30;11.27;;;13.00;99.90;;;;;;20631923;28;20471;-43
2023/05/11 07:38:17;;;;;;;26.90;10.63;;;13.10;99.90;;;;;;20636359;28;20057;-43
2023/05/11 07:48:18;;;;;;;26.90;10.25;;;13.40;99.90;;;;;;20638466;28;20033;-43
2023/05/11 07:58:19;;;;;;;26.55;11.65;;;13.50;99.90;;;;;;20638656;28;20119;-43
2023/05/11 08:08:20;;;;;;;21.08;8.63;;;13.90;99.90;;;;;;20645758;28;20134;-43
2023/05/11 08:18:21;;;;;;;21.15;9.82;;;14.10;95.70;;;;;;20643236;28;20388;-43
2023/05/11 08:28:22;;;;;;;14.40;6.78;;;14.40;95.10;;;;;;20642370;28;20042;-43
2023/05/11 08:38:23;;;;;;;14.73;6.95;;;14.50;43.40;;;;;;20650118;28;20057;-43
2023/05/11 08:48:25;;;;;;;11.55;5.55;;;14.70;13.10;;;;;;20654127;28;20289;-43
2023/05/11 08:58:28;;;;;;;9.25;4.55;;;14.90;15.80;;;;;;20641679;28;20502;-43
2023/05/11 09:08:31;;;;;;;8.00;4.25;;;15.00;15.50;;;;;;20646415;28;20433;-44
2023/05/11 09:18:32;;;;;;;9.80;3.85;;;15.50;13.60;;;;;;20644747;28;20056;-42
2023/05/11 09:28:33;;;;;;;9.32;3.65;;;15.60;1.00;;;;;;20642339;28;20734;-42
2023/05/11 09:38:34;;;;;;;5.72;3.00;;;15.50;1.00;;;;;;20636645;28;20053;-41
2023/05/11 09:48:35;;;;;;;9.20;3.85;;;15.30;1.00;;;;;;20654164;28;20042;-42
2023/05/11 09:58:57;;;;;;;7.93;4.15;;;15.30;1.00;;;;;;20667800;28;20366;-42
2023/05/11 10:09:08;;;;;;;6.30;3.08;;;15.50;1.00;;;;;;20648810;28;20862;-42
2023/05/11 10:19:10;;;;;;;8.35;4.45;;;15.70;1.00;;;;;;20673595;28;20034;-42
2023/05/11 10:29:12;;;;;;;8.77;4.60;;;16.00;1.00;;;;;;20662343;28;20152;-42
2023/05/11 10:39:13;;;;;;;10.52;4.93;;;16.00;1.00;;;;;;20662387;28;20448;-42
2023/05/11 10:49:50;;;;;;;10.52;4.18;;;16.00;1.00;;;;;;20646942;28;20034;-42
2023/05/11 11:00:29;;;;;;;9.93;5.00;;;15.70;1.00;;;;;;20649079;28;20053;-43
2023/05/11 11:10:37;;;;;;;12.88;5.05;;;15.30;1.00;;;;;;20656072;28;20041;-41
2023/05/11 11:20:56;;;;;;;7.93;4.07;;;15.20;9.60;;;;;;20642118;28;20053;-41
2023/05/11 11:31:24;;;;;;;9.70;4.68;;;15.00;17.50;;;;;;20645100;28;21364;-41
2023/05/11 11:41:29;;;;;;;9.82;4.72;;;15.00;33.80;;;;;;20645891;28;20394;-41
2023/05/11 11:51:32;;;;;;;9.07;4.82;;;14.70;45.20;;;;;;20641997;28;20056;-43
2023/05/11 12:01:37;;;;;;;11.85;5.40;;;14.40;81.00;;;;;;20649814;28;20046;-41
2023/05/11 12:11:44;;;;;;;8.60;4.13;;;14.20;99.90;;;;;;20649423;28;20042;-42
2023/05/11 12:21:46;;;;;;;5.15;3.05;;;14.00;99.90;;;;;;20651759;28;20038;-41
2023/05/11 12:31:47;;;;;;;8.55;4.55;;;14.00;99.90;;;;;;20648611;28;20394;-42
2023/05/11 12:41:49;;;;;;;10.30;4.97;;;13.90;99.90;;;;;;20634367;28;20426;-42
2023/05/11 12:52:01;;;;;;;10.90;5.95;;;14.10;99.90;;;;;;20634912;28;20034;-42
2023/05/11 13:02:08;;;;;;;10.80;4.45;;;14.30;99.90;;;;;;20639783;28;20057;-42
2023/05/11 13:12:12;;;;;;;6.25;3.63;;;14.40;99.90;;;;;;20630590;28;20041;-42
2023/05/11 13:22:13;;;;;;;10.63;4.80;;;14.20;99.90;;;;;;20623255;28;20157;-42
2023/05/11 13:32:14;;;;;;;7.90;3.45;;;14.10;99.90;;;;;;20629266;28;20149;-41
2023/05/11 13:42:16;;;;;;;4.40;2.13;;;13.90;99.90;;;;;;20646759;28;20481;-42
2023/05/11 13:52:17;;;;;;;5.15;2.20;;;13.70;99.90;;;;;;20645365;28;20038;-42
2023/05/11 14:02:18;;;;;;;6.80;2.95;;;13.70;99.90;;;;;;20641260;28;21075;-42
2023/05/11 14:12:19;;;;;;;6.43;2.88;;;13.80;99.90;;;;;;20640742;28;20049;-42
2023/05/11 14:22:20;;;;;;;6.03;3.22;;;14.00;99.90;;;;;;20624841;28;20047;-41
2023/05/11 14:32:22;;;;;;;6.22;3.10;;;14.20;99.90;;;;;;20654249;28;20034;-41
2023/05/11 14:42:22;;;;;;;4.28;2.28;;;14.50;99.90;;;;;;20640825;28;20053;-41
2023/05/11 14:52:24;;;;;;;8.50;3.40;;;14.50;99.90;;;;;;20658325;28;20079;-41
2023/05/11 15:02:25;;;;;;;6.60;3.72;;;14.60;93.50;;;;;;20653562;28;20046;-42
2023/05/11 15:12:26;;;;;;;6.97;3.70;;;14.70;69.60;;;;;;20644001;28;20432;-41
2023/05/11 15:22:27;;;;;;;7.15;3.60;;;14.80;71.30;;;;;;20631354;28;20042;-41
2023/05/11 15:32:28;;;;;;;6.47;3.30;;;14.80;78.20;;;;;;20657028;28;20584;-41
2023/05/11 15:42:29;;;;;;;5.60;3.45;;;14.80;87.50;;;;;;20658780;28;20042;-41
2023/05/11 15:52:31;;;;;;;8.57;5.18;;;14.70;90.80;;;;;;20657049;28;20041;-42
2023/05/11 16:02:32;;;;;;;7.93;4.85;;;14.80;88.30;;;;;;20640262;28;20042;-41
2023/05/11 16:12:33;;;;;;;5.80;3.70;;;14.80;87.70;;;;;;20659517;28;20042;-42
2023/05/11 16:22:36;;;;;;;8.15;4.40;;;14.80;95.30;;;;;;20645230;28;20045;-42
2023/05/11 16:32:37;;;;;;;9.00;3.97;;;14.90;99.90;;;;;;20643739;28;20037;-41
2023/05/11 16:42:38;;;;;;;6.63;3.58;;;15.00;99.90;;;;;;20653736;28;20102;-42
2023/05/11 16:52:40;;;;;;;4.68;2.40;;;15.10;99.90;;;;;;20639534;28;20050;-41
2023/05/11 17:02:41;;;;;;;6.03;2.83;;;15.00;94.40;;;;;;20634724;28;20054;-41
2023/05/11 17:12:42;;;;;;;4.13;2.65;;;15.10;91.90;;;;;;20647435;28;20046;-42
2023/05/11 17:22:44;;;;;;;3.15;1.70;;;15.10;87.30;;;;;;20633673;28;20052;-42
2023/05/11 17:32:45;;;;;;;3.53;1.60;;;15.00;81.60;;;;;;20613179;28;20041;-41
2023/05/11 17:42:46;;;;;;;5.28;2.50;;;14.90;87.20;;;;;;20635385;28;20045;-41
2023/05/11 17:52:48;;;;;;;7.07;3.33;;;15.00;80.10;;;;;;20624718;28;20476;-42
2023/05/11 18:02:49;;;;;;;5.57;2.85;;;14.90;71.10;;;;;;20632226;28;20050;-41
2023/05/11 18:12:50;;;;;;;4.78;2.97;;;14.90;60.00;;;;;;20640073;28;20052;-41
2023/05/11 18:22:51;;;;;;;5.28;3.35;;;14.70;74.90;;;;;;20650486;28;20049;-41
2023/05/11 18:32:52;;;;;;;4.97;3.17;;;14.70;80.90;;;;;;20647373;28;20052;-41
2023/05/11 18:42:54;;;;;;;7.10;3.72;;;14.60;92.80;;;;;;20637666;28;20076;-41
2023/05/11 18:52:56;;;;;;;4.78;2.70;;;14.50;97.20;;;;;;20648119;28;20421;-41
2023/05/11 19:02:57;;;;;;;3.90;1.80;;;14.40;99.90;;;;;;20654913;28;20282;-42
2023/05/11 19:12:58;;;;;;;3.08;1.38;;;14.40;99.90;;;;;;20658998;28;20041;-41
2023/05/11 19:22:59;;;;;;;3.35;1.33;;;14.20;96.90;;;;;;20637856;28;20526;-41
2023/05/11 19:33:01;;;;;;;2.65;1.10;;;14.00;95.60;;;;;;20645898;28;20050;-41
2023/05/11 19:43:02;;;;;;;3.15;1.30;;;14.00;98.00;;;;;;20644192;28;20041;-44
2023/05/11 19:53:03;;;;;;;2.50;1.00;;;13.90;96.20;;;;;;20639148;28;20042;-41
2023/05/11 20:03:05;;;;;;;3.30;1.38;;;13.80;93.60;;;;;;20645920;28;20057;-42
2023/05/11 20:13:06;;;;;;;4.78;1.83;;;13.80;93.20;;;;;;20643977;28;20984;-41
2023/05/11 20:23:08;;;;;;;4.70;2.33;;;13.80;98.60;;;;;;20634936;28;20050;-42
2023/05/11 20:33:09;;;;;;;3.63;2.15;;;13.80;99.90;;;;;;20650933;28;20042;-41
2023/05/11 20:43:10;;;;;;;4.35;2.17;;;13.90;99.90;;;;;;20656288;28;20065;-42
2023/05/11 20:53:11;;;;;;;4.03;1.90;;;13.80;99.90;;;;;;20643931;28;20087;-41
2023/05/11 21:03:12;;;;;;;5.55;2.90;;;13.70;99.90;;;;;;20639568;28;20064;-42
2023/05/11 21:13:13;;;;;;;5.75;2.47;;;13.70;99.90;;;;;;20654906;28;20053;-41
2023/05/11 21:23:14;;;;;;;13.82;4.15;;;13.70;99.90;;;;;;20641935;28;20708;-42
2023/05/11 21:33:15;;;;;;;8.85;4.78;;;13.70;99.90;;;;;;20633867;28;20389;-42
2023/05/11 21:43:17;;;;;;;8.02;5.50;;;13.70;99.90;;;;;;20631702;28;20054;-42
2023/05/11 21:53:18;;;;;;;9.80;4.90;;;13.70;99.90;;;;;;20640369;28;20033;-41
2023/05/11 22:03:19;;;;;;;5.85;3.50;;;13.70;99.90;;;;;;20641545;28;20050;-42
2023/05/11 22:13:20;;;;;;;6.38;3.20;;;13.60;99.90;;;;;;20629281;28;20141;-42
2023/05/11 22:23:21;;;;;;;6.13;3.47;;;13.50;99.90;;;;;;20633092;28;20342;-41
2023/05/11 22:33:22;;;;;;;6.68;3.50;;;13.40;99.90;;;;;;20635405;28;20116;-41
2023/05/11 22:43:24;;;;;;;6.90;3.60;;;13.40;99.90;;;;;;20614291;28;20080;-42
2023/05/11 22:53:25;;;;;;;7.18;3.65;;;13.30;99.90;;;;;;20638036;28;20049;-41
2023/05/11 23:03:26;;;;;;;8.63;3.05;;;13.30;99.90;;;;;;20646669;28;22172;-41
2023/05/11 23:13:27;;;;;;;8.40;2.38;;;13.10;99.90;;;;;;20640878;28;20053;-42
2023/05/11 23:23:28;;;;;;;4.22;1.77;;;13.10;99.90;;;;;;20646790;28;20055;-42
2023/05/11 23:33:30;;;;;;;5.43;2.08;;;13.00;99.90;;;;;;20641830;28;20042;-42
2023/05/11 23:43:32;;;;;;;6.35;1.63;;;12.80;97.20;;;;;;20649376;28;20461;-43
2023/05/11 23:53:33;;;;;;;5.38;1.58;;;12.80;90.80;;;;;;20647067;28;20046;-43
